Time;durP1;ratioP1;P1;durP2;ratioP2;P2;SDS_P1;SDS_P2;PMS_P1;PMS_P2;Temp;Humidity;BMP_temperature;BMP_pressure;BME280_temperature;BME280_humidity;BME280_pressure;Samples;Min_cycle;Max_cycle;Signal;HPM_P1;HPM_P2
2021/08/08 00:01:43;;;;;;;4.22;1.65;;;;;;;18.55;59.99;98511.38;6072362;23;20028;-92
2021/08/08 00:04:10;;;;;;;3.45;1.67;;;;;;;18.53;60.13;98511.53;6071327;23;20034;-92
2021/08/08 00:06:39;;;;;;;2.78;1.60;;;;;;;18.51;60.21;98510.06;6071248;23;20398;-90
2021/08/08 00:09:06;;;;;;;4.55;1.60;;;;;;;18.47;60.17;98509.56;6071450;23;20097;-89
2021/08/08 00:11:33;;;;;;;4.07;1.38;;;;;;;18.46;60.53;98514.06;6071796;23;20022;-88
2021/08/08 00:14:00;;;;;;;2.38;1.20;;;;;;;18.46;60.57;98510.56;6096514;23;20026;-90
2021/08/08 00:16:29;;;;;;;4.53;1.55;;;;;;;18.46;60.56;98515.88;6071505;23;20101;-91
2021/08/08 00:18:56;;;;;;;3.45;1.42;;;;;;;18.45;60.82;98506.22;6097837;23;20023;-91
2021/08/08 00:21:23;;;;;;;4.40;1.35;;;;;;;18.44;60.73;98505.41;6071416;23;20022;-91
2021/08/08 00:23:50;;;;;;;4.55;1.50;;;;;;;18.45;60.74;98508.91;6072467;23;20049;-89
2021/08/08 00:26:17;;;;;;;4.18;1.42;;;;;;;18.45;60.79;98501.75;6071939;23;20109;-88
2021/08/08 00:28:45;;;;;;;2.40;1.35;;;;;;;18.45;61.05;98508.91;6072856;23;20316;-90
2021/08/08 00:31:12;;;;;;;3.28;1.50;;;;;;;18.45;60.96;98500.91;6071715;23;20027;-91
2021/08/08 00:33:39;;;;;;;6.10;1.65;;;;;;;18.45;61.26;98503.56;6097564;23;20062;-90
2021/08/08 00:36:05;;;;;;;3.85;1.50;;;;;;;18.45;61.07;98500.91;6071028;23;20018;-92
2021/08/08 00:38:32;;;;;;;6.78;1.88;;;;;;;18.45;61.18;98508.91;6096138;23;20027;-89
2021/08/08 00:40:59;;;;;;;2.40;1.50;;;;;;;18.46;61.04;98505.22;6096480;23;20494;-91
2021/08/08 00:43:25;;;;;;;4.97;1.60;;;;;;;18.44;61.11;98508.09;6071595;23;20025;-91
2021/08/08 00:45:52;;;;;;;4.22;1.45;;;;;;;18.42;60.93;98495.91;6071201;23;20026;-91
2021/08/08 00:48:18;;;;;;;4.35;1.80;;;;;;;18.41;61.27;98497.75;6095427;23;20469;-92
2021/08/08 00:50:45;;;;;;;4.57;2.10;;;;;;;18.40;61.05;98500.59;6095757;23;20038;-91
2021/08/08 00:53:13;;;;;;;5.25;2.00;;;;;;;18.38;61.22;98491.94;6071341;23;20026;-89
2021/08/08 00:55:40;;;;;;;5.65;2.22;;;;;;;18.36;61.28;98495.59;6071549;23;20037;-90
2021/08/08 00:58:07;;;;;;;2.30;1.63;;;;;;;18.33;61.25;98495.09;6072684;23;20018;-91
2021/08/08 01:00:36;;;;;;;2.60;1.60;;;;;;;18.29;62.03;98491.97;6071691;23;20470;-90
2021/08/08 01:03:07;;;;;;;3.83;1.70;;;;;;;18.27;61.79;98503.78;6072005;23;20078;-89
2021/08/08 01:05:42;;;;;;;3.00;1.52;;;;;;;18.23;62.17;98500.59;6071482;23;20463;-90
2021/08/08 01:08:14;;;;;;;9.35;1.60;;;;;;;18.21;61.99;98505.28;6071911;23;20026;-89
2021/08/08 01:10:42;;;;;;;5.65;1.70;;;;;;;18.19;61.95;98507.25;6072066;23;20037;-92
2021/08/08 01:13:11;;;;;;;3.10;1.48;;;;;;;18.17;62.58;98502.09;6071826;23;20497;-91
2021/08/08 01:15:40;;;;;;;2.38;1.63;;;;;;;18.16;62.51;98499.63;6097794;23;20026;-90
2021/08/08 01:18:12;;;;;;;4.47;1.33;;;;;;;18.16;62.33;98504.97;6072002;23;20122;-89
2021/08/08 01:20:39;;;;;;;4.22;1.35;;;;;;;18.16;62.61;98495.13;6072073;23;20323;-89
2021/08/08 01:23:08;;;;;;;3.45;1.25;;;;;;;18.16;62.69;98496.97;6071600;23;20397;-88
2021/08/08 01:25:36;;;;;;;7.82;1.67;;;;;;;18.17;62.87;98494.13;6072606;23;20078;-90
2021/08/08 01:28:04;;;;;;;5.15;1.10;;;;;;;18.19;62.71;98501.94;6097628;23;20018;-89
2021/08/08 01:30:31;;;;;;;5.28;1.67;;;;;;;18.19;62.76;98500.13;6071000;23;20455;-91
2021/08/08 01:33:05;;;;;;;4.22;1.52;;;;;;;18.17;64.28;98501.28;6097211;23;20022;-88
2021/08/08 01:35:32;;;;;;;2.90;1.30;;;;;;;18.22;62.91;98496.28;6071362;23;20459;-89
2021/08/08 01:37:59;;;;;;;2.63;1.20;;;;;;;18.23;62.97;98500.59;6096435;23;20023;-91
2021/08/08 01:40:37;;;;;;;5.13;1.23;;;;;;;18.24;64.55;98502.25;6071508;23;20023;-92
2021/08/08 01:43:09;;;;;;;3.78;1.23;;;;;;;18.29;63.54;98509.75;6096953;23;20029;-90
2021/08/08 01:45:40;;;;;;;1.80;1.48;;;;;;;18.30;63.57;98511.41;6097585;23;20026;-91
2021/08/08 01:48:10;;;;;;;1.90;1.35;;;;;;;18.33;63.08;98511.09;6096003;23;20451;-89
2021/08/08 01:50:37;;;;;;;2.60;1.23;;;;;;;18.34;63.34;98510.91;6096758;23;20022;-89
2021/08/08 01:53:04;;;;;;;4.65;1.40;;;;;;;18.36;63.26;98508.09;6096341;23;20029;-90
2021/08/08 01:55:31;;;;;;;2.60;1.50;;;;;;;18.39;63.27;98506.91;6071035;23;20019;-89
2021/08/08 01:57:58;;;;;;;3.00;1.50;;;;;;;18.38;63.22;98502.59;6096716;23;20023;-92
2021/08/08 02:00:25;;;;;;;3.28;1.55;;;;;;;18.39;63.38;98510.41;6072028;23;20023;-88
2021/08/08 02:02:58;;;;;;;2.58;1.45;;;;;;;18.38;63.50;98513.25;6071678;23;20141;-89
2021/08/08 02:05:26;;;;;;;4.83;1.70;;;;;;;18.38;63.56;98513.25;6070763;23;20143;-90
2021/08/08 02:07:53;;;;;;;3.95;1.70;;;;;;;18.39;63.51;98514.91;6070743;23;20027;-90
2021/08/08 02:10:20;;;;;;;3.20;1.50;;;;;;;18.35;63.50;98509.06;6071129;23;20033;-91
2021/08/08 02:12:47;;;;;;;4.40;1.40;;;;;;;18.35;63.76;98509.06;6070986;23;20037;-89
2021/08/08 02:15:14;;;;;;;5.85;1.80;;;;;;;18.34;63.74;98513.59;6095616;23;20037;-89
2021/08/08 02:17:41;;;;;;;2.90;1.60;;;;;;;18.35;63.74;98503.75;6096822;23;20022;-90
2021/08/08 02:20:11;;;;;;;5.50;1.90;;;;;;;18.33;64.29;98508.41;6071411;23;20033;-92
2021/08/08 02:22:38;;;;;;;4.05;1.67;;;;;;;18.32;64.11;98509.44;6070700;23;20026;-90
2021/08/08 02:25:05;;;;;;;3.58;1.98;;;;;;;18.30;63.98;98506.09;6095365;23;20027;-89
2021/08/08 02:27:32;;;;;;;4.10;2.20;;;;;;;18.29;64.12;98509.75;6070465;23;20022;-89
2021/08/08 02:29:58;;;;;;;3.58;2.10;;;;;;;18.28;64.13;98513.44;6070740;23;20027;-89
2021/08/08 02:32:25;;;;;;;4.90;2.08;;;;;;;18.27;64.12;98512.59;6096185;23;20022;-90
2021/08/08 02:34:52;;;;;;;7.60;2.13;;;;;;;18.26;64.36;98504.75;6095043;23;20030;-91
2021/08/08 02:37:18;;;;;;;3.88;2.03;;;;;;;18.25;64.55;98506.59;6069775;23;20026;-89
2021/08/08 02:39:45;;;;;;;4.20;2.10;;;;;;;18.24;64.66;98504.91;6069201;23;20022;-89
2021/08/08 02:42:11;;;;;;;5.60;2.22;;;;;;;18.24;64.73;98515.56;6070697;23;20029;-87
2021/08/08 02:44:38;;;;;;;5.68;2.25;;;;;;;18.23;64.91;98511.25;6095384;23;20023;-89
2021/08/08 02:47:05;;;;;;;5.20;2.38;;;;;;;18.22;64.88;98512.25;6070017;23;20059;-89
2021/08/08 02:49:31;;;;;;;4.60;2.42;;;;;;;18.21;64.75;98513.28;6069810;23;20485;-87
2021/08/08 02:51:58;;;;;;;6.20;2.85;;;;;;;18.18;64.87;98517.09;6095483;23;20026;-89
2021/08/08 02:54:24;;;;;;;6.75;2.88;;;;;;;18.15;64.99;98519.25;6069461;23;20026;-90
2021/08/08 02:56:51;;;;;;;5.20;2.85;;;;;;;18.14;65.22;98521.09;6070602;23;20022;-90
2021/08/08 02:59:17;;;;;;;4.00;2.78;;;;;;;18.12;65.45;98530.25;6070657;23;20025;-87
2021/08/08 03:01:44;;;;;;;5.55;2.83;;;;;;;18.10;65.16;98525.09;6095756;23;20023;-89
2021/08/08 03:04:11;;;;;;;6.15;2.90;;;;;;;18.07;65.61;98528.91;6094909;23;20033;-88
2021/08/08 03:06:43;;;;;;;3.47;2.60;;;;;;;18.03;66.63;98524.06;6094949;23;20542;-88
2021/08/08 03:09:10;;;;;;;3.35;2.58;;;;;;;18.04;65.42;98533.69;6070186;23;20030;-88
2021/08/08 03:11:37;;;;;;;9.52;2.85;;;;;;;18.02;65.77;98525.88;6094903;23;20548;-89
2021/08/08 03:14:03;;;;;;;4.72;2.95;;;;;;;18.02;66.01;98539.19;6069761;23;20371;-86
2021/08/08 03:16:30;;;;;;;6.60;2.85;;;;;;;18.02;65.64;98541.84;6094900;23;20030;-86
2021/08/08 03:18:57;;;;;;;5.60;2.90;;;;;;;18.02;66.13;98547.19;6069537;23;20379;-88
2021/08/08 03:21:23;;;;;;;5.63;3.50;;;;;;;18.02;65.97;98549.84;6095271;23;20026;-89
2021/08/08 03:23:50;;;;;;;5.50;2.67;;;;;;;18.02;66.04;98557.00;6095403;23;20037;-88
2021/08/08 03:26:16;;;;;;;4.88;3.08;;;;;;;18.00;66.39;98549.19;6094609;23;20475;-89
2021/08/08 03:28:43;;;;;;;7.07;3.10;;;;;;;18.00;66.29;98565.16;6095154;23;20025;-91
2021/08/08 03:31:10;;;;;;;5.30;3.00;;;;;;;18.00;66.15;98562.50;6094918;23;20459;-87
2021/08/08 03:33:37;;;;;;;5.13;2.88;;;;;;;17.99;66.21;98558.19;6094885;23;20026;-90
2021/08/08 03:36:04;;;;;;;5.93;3.33;;;;;;;17.99;66.33;98560.84;6069869;23;20022;-89
2021/08/08 03:38:30;;;;;;;4.75;3.08;;;;;;;17.98;66.42;98567.97;6069985;23;20026;-88
2021/08/08 03:40:57;;;;;;;6.22;3.30;;;;;;;17.99;66.36;98571.50;6095300;23;20026;-88
2021/08/08 03:43:33;;;;;;;6.65;3.28;;;;;;;18.01;66.46;98587.31;6094936;23;20027;-89
2021/08/08 03:46:01;;;;;;;5.50;2.85;;;;;;;18.02;66.33;98573.00;6069835;23;20026;-88
2021/08/08 03:48:28;;;;;;;6.07;3.45;;;;;;;18.01;66.37;98597.94;6095361;23;20030;-89
2021/08/08 03:50:54;;;;;;;5.82;2.97;;;;;;;18.01;66.45;98588.13;6095337;23;20027;-92
2021/08/08 03:53:21;;;;;;;8.68;3.00;;;;;;;18.01;66.30;98593.44;6069517;23;20027;-89
2021/08/08 03:55:48;;;;;;;8.73;3.17;;;;;;;18.01;66.59;98603.28;6095004;23;20026;-89
2021/08/08 03:58:14;;;;;;;6.00;3.13;;;;;;;18.00;66.75;98599.78;6069957;23;20097;-90
2021/08/08 04:00:41;;;;;;;5.03;3.08;;;;;;;18.00;66.47;98594.44;6095097;23;20027;-87
2021/08/08 04:03:07;;;;;;;9.20;3.78;;;;;;;18.00;66.67;98602.44;6070829;23;20026;-89
2021/08/08 04:05:35;;;;;;;6.53;3.22;;;;;;;18.00;66.43;98602.44;6070035;23;20377;-90
2021/08/08 04:08:04;;;;;;;8.40;3.33;;;;;;;18.00;66.77;98606.91;6070708;23;20359;-92
2021/08/08 04:10:31;;;;;;;6.40;2.85;;;;;;;17.99;66.73;98606.09;6095748;23;20022;-88
2021/08/08 04:12:57;;;;;;;5.88;3.20;;;;;;;17.98;66.60;98599.94;6096218;23;20022;-89
2021/08/08 04:15:24;;;;;;;6.93;2.75;;;;;;;17.99;66.73;98606.09;6095608;23;20033;-91
2021/08/08 04:17:51;;;;;;;6.93;3.30;;;;;;;17.97;66.85;98616.06;6095419;23;20026;-88
2021/08/08 04:20:18;;;;;;;4.75;2.90;;;;;;;17.95;67.05;98618.88;6094583;23;20030;-89
2021/08/08 04:22:45;;;;;;;10.10;3.67;;;;;;;17.93;66.66;98634.22;6095041;23;20034;-88
2021/08/08 04:25:17;;;;;;;8.38;3.33;;;;;;;17.90;67.25;98628.38;6069231;23;20230;-89
2021/08/08 04:27:44;;;;;;;6.97;3.30;;;;;;;17.90;67.08;98631.06;6068750;23;20022;-88
2021/08/08 04:30:11;;;;;;;9.00;3.42;;;;;;;17.88;67.05;98641.00;6069543;23;20270;-90
2021/08/08 04:32:37;;;;;;;7.60;3.28;;;;;;;17.86;66.84;98646.50;6095130;23;20026;-88
2021/08/08 04:35:06;;;;;;;9.65;3.33;;;;;;;17.82;67.29;98650.47;6070005;23;20069;-89
2021/08/08 04:37:33;;;;;;;10.05;4.00;;;;;;;17.80;67.20;98634.66;6069734;23;20030;-87
2021/08/08 04:39:59;;;;;;;7.13;3.28;;;;;;;17.78;67.20;98649.13;6094486;23;20164;-87
2021/08/08 04:42:27;;;;;;;7.80;3.22;;;;;;;17.75;67.43;98644.97;6095077;23;20022;-89
2021/08/08 04:44:53;;;;;;;9.20;3.28;;;;;;;17.73;67.46;98648.78;6069148;23;20026;-87
2021/08/08 04:47:20;;;;;;;9.02;3.08;;;;;;;17.70;67.35;98649.94;6094882;23;20026;-89
2021/08/08 04:49:46;;;;;;;9.75;3.35;;;;;;;17.66;67.61;98648.59;6069507;23;20027;-89
2021/08/08 04:52:13;;;;;;;10.65;3.30;;;;;;;17.64;67.68;98663.91;6069444;23;20022;-90
2021/08/08 04:54:39;;;;;;;10.75;3.88;;;;;;;17.61;67.82;98661.56;6069041;23;20037;-89
2021/08/08 04:57:06;;;;;;;8.98;3.78;;;;;;;17.61;67.90;98666.88;6069424;23;20026;-87
2021/08/08 04:59:32;;;;;;;9.55;3.80;;;;;;;17.58;67.59;98674.16;6094489;23;20022;-89
2021/08/08 05:01:59;;;;;;;9.02;3.22;;;;;;;17.57;68.17;98664.53;6094957;23;20030;-89
2021/08/08 05:04:26;;;;;;;8.88;3.13;;;;;;;17.56;67.85;98676.16;6094526;23;20023;-90
2021/08/08 05:06:52;;;;;;;7.72;3.60;;;;;;;17.56;68.01;98680.66;6095115;23;20033;-88
2021/08/08 05:09:19;;;;;;;7.70;3.08;;;;;;;17.55;67.88;98685.16;6070724;23;20045;-85
2021/08/08 05:11:46;;;;;;;7.15;3.47;;;;;;;17.55;67.86;98686.97;6069674;23;20022;-87
2021/08/08 05:14:12;;;;;;;9.43;3.40;;;;;;;17.55;68.00;98700.28;6094369;23;20083;-86
2021/08/08 05:16:39;;;;;;;7.80;3.00;;;;;;;17.54;68.00;98693.28;6095725;23;20399;-91
2021/08/08 05:19:06;;;;;;;8.48;3.72;;;;;;;17.54;68.04;98699.44;6069435;23;20023;-90
2021/08/08 05:21:33;;;;;;;9.05;3.25;;;;;;;17.53;68.09;98697.78;6069903;23;20030;-89
2021/08/08 05:24:00;;;;;;;12.85;3.05;;;;;;;17.53;67.74;98703.09;6095292;23;20160;-87
2021/08/08 05:26:27;;;;;;;7.55;3.30;;;;;;;17.54;67.97;98706.59;6069451;23;20027;-90
2021/08/08 05:28:53;;;;;;;11.32;2.88;;;;;;;17.54;67.83;98715.38;6069110;23;20049;-89
2021/08/08 05:31:20;;;;;;;9.98;3.75;;;;;;;17.53;67.95;98713.72;6068830;23;20030;-90
2021/08/08 05:33:47;;;;;;;8.15;3.10;;;;;;;17.54;67.88;98718.06;6094068;23;20026;-90
2021/08/08 05:36:13;;;;;;;9.63;2.90;;;;;;;17.54;67.90;98722.56;6069361;23;20046;-89
2021/08/08 05:38:40;;;;;;;11.38;3.13;;;;;;;17.54;67.84;98726.03;6069487;23;20022;-88
2021/08/08 05:41:06;;;;;;;7.35;3.25;;;;;;;17.54;68.12;98722.56;6070873;23;20026;-88
2021/08/08 05:43:33;;;;;;;7.72;3.10;;;;;;;17.54;68.06;98726.03;6071171;23;20026;-88
2021/08/08 05:46:00;;;;;;;7.55;3.03;;;;;;;17.56;67.89;98733.88;6070727;23;20029;-88
2021/08/08 05:48:26;;;;;;;7.68;3.15;;;;;;;17.56;68.18;98734.72;6070906;23;20057;-90
2021/08/08 05:50:53;;;;;;;11.02;3.40;;;;;;;17.60;67.53;98734.41;6096104;23;20033;-90
2021/08/08 05:53:19;;;;;;;11.32;4.03;;;;;;;17.60;67.75;98745.88;6096065;23;20030;-90
2021/08/08 05:55:46;;;;;;;9.57;3.40;;;;;;;17.62;67.59;98743.03;6095957;23;20030;-89
2021/08/08 05:58:13;;;;;;;18.23;3.70;;;;;;;17.63;67.63;98740.22;6070796;23;20075;-89
2021/08/08 06:00:41;;;;;;;12.20;3.50;;;;;;;17.65;67.82;98746.22;6070316;23;20029;-91
2021/08/08 06:03:10;;;;;;;7.28;2.50;;;;;;;17.68;67.87;98761.88;6096148;23;20097;-88
2021/08/08 06:05:38;;;;;;;9.73;3.30;;;;;;;17.69;67.94;98774.19;6070338;23;20093;-86
2021/08/08 06:08:05;;;;;;;9.30;2.97;;;;;;;17.73;67.62;98758.75;6096101;23;20023;-85
2021/08/08 06:10:32;;;;;;;11.55;3.58;;;;;;;17.75;67.43;98775.38;6095898;23;20037;-88
2021/08/08 06:12:59;;;;;;;12.68;3.08;;;;;;;17.78;67.04;98769.75;6096082;23;20029;-91
2021/08/08 06:15:25;;;;;;;8.85;3.20;;;;;;;17.80;67.10;98783.72;6070635;23;20380;-90
2021/08/08 06:17:52;;;;;;;7.07;2.67;;;;;;;17.83;66.98;98782.59;6070632;23;20030;-87
2021/08/08 06:20:19;;;;;;;10.75;3.50;;;;;;;17.86;66.83;98784.09;6070940;23;20328;-89
2021/08/08 06:22:46;;;;;;;9.65;3.00;;;;;;;17.88;66.77;98790.94;6070515;23;20030;-90
2021/08/08 06:25:13;;;;;;;9.63;3.28;;;;;;;17.92;66.60;98802.09;6070271;23;20030;-90
2021/08/08 06:27:39;;;;;;;9.25;3.00;;;;;;;17.95;66.67;98801.78;6070069;23;20033;-89
2021/08/08 06:30:07;;;;;;;10.98;3.20;;;;;;;17.99;66.73;98797.81;6095659;23;20054;-89
2021/08/08 06:32:34;;;;;;;7.65;3.00;;;;;;;18.02;66.84;98804.63;6070984;23;20030;-90
2021/08/08 06:35:02;;;;;;;9.30;3.08;;;;;;;18.04;66.50;98800.81;6069838;23;20026;-90
2021/08/08 06:37:29;;;;;;;12.30;3.50;;;;;;;18.09;66.65;98806.53;6095623;23;20494;-88
2021/08/08 06:39:55;;;;;;;9.18;3.00;;;;;;;18.14;66.44;98807.88;6070324;23;20041;-88
2021/08/08 06:42:22;;;;;;;12.13;3.30;;;;;;;18.16;66.33;98813.88;6095427;23;20037;-87
2021/08/08 06:44:49;;;;;;;13.57;3.20;;;;;;;18.19;66.22;98818.88;6094826;23;20033;-89
2021/08/08 06:47:15;;;;;;;9.02;3.20;;;;;;;18.21;65.95;98823.03;6070615;23;20023;-87
2021/08/08 06:49:42;;;;;;;9.70;2.85;;;;;;;18.23;65.57;98823.72;6095784;23;20029;-87
2021/08/08 06:52:08;;;;;;;13.25;3.28;;;;;;;18.26;65.51;98824.41;6095313;23;20025;-89
2021/08/08 06:54:35;;;;;;;10.43;2.90;;;;;;;18.27;65.53;98826.09;6095121;23;20030;-88
2021/08/08 06:57:02;;;;;;;16.45;3.67;;;;;;;18.27;65.23;98842.88;6069584;23;20034;-87
2021/08/08 06:59:31;;;;;;;10.02;3.17;;;;;;;18.30;65.45;98839.06;6095359;23;20022;-88
2021/08/08 07:01:58;;;;;;;10.52;3.35;;;;;;;18.31;65.31;98844.25;6069926;23;20038;-89
2021/08/08 07:04:25;;;;;;;8.50;3.08;;;;;;;18.35;65.52;98847.41;6094865;23;20373;-89
2021/08/08 07:06:52;;;;;;;8.88;2.92;;;;;;;18.39;65.47;98847.94;6095669;23;20391;-88
2021/08/08 07:09:18;;;;;;;8.98;3.08;;;;;;;18.45;65.50;98855.28;6069808;23;20033;-88
2021/08/08 07:11:45;;;;;;;12.07;3.53;;;;;;;18.49;65.56;98859.28;6069631;23;20030;-86
2021/08/08 07:14:11;;;;;;;11.43;2.95;;;;;;;18.56;65.18;98870.97;6095020;23;20299;-86
2021/08/08 07:16:38;;;;;;;11.65;3.10;;;;;;;18.61;65.24;98866.00;6095667;23;20350;-86
2021/08/08 07:19:05;;;;;;;12.98;3.40;;;;;;;18.67;65.06;98859.19;6095370;23;20018;-86
2021/08/08 07:21:31;;;;;;;9.55;3.05;;;;;;;18.72;65.01;98870.19;6095111;23;20049;-87
2021/08/08 07:24:09;;;;;;;18.67;5.13;;;;;;;18.76;64.67;98881.34;6094687;23;20327;-87
2021/08/08 07:26:35;;;;;;;15.85;3.13;;;;;;;18.81;64.39;98872.88;6069601;23;20034;-87
2021/08/08 07:29:02;;;;;;;15.88;3.35;;;;;;;18.86;64.27;98871.41;6094909;23;20026;-88
2021/08/08 07:31:44;;;;;;;9.00;3.30;;;;;;;18.91;63.95;98881.56;6072855;23;20027;-86
2021/08/08 07:34:11;;;;;;;8.30;2.88;;;;;;;18.95;63.93;98887.41;6094997;23;20073;-87
2021/08/08 07:36:37;;;;;;;12.65;3.22;;;;;;;18.97;63.82;98890.75;6069388;23;20091;-87
2021/08/08 07:39:04;;;;;;;9.02;2.80;;;;;;;18.97;63.33;98894.25;6069861;23;20391;-87
2021/08/08 07:41:30;;;;;;;11.68;2.90;;;;;;;18.98;63.06;98890.56;6095302;23;20038;-88
2021/08/08 07:43:57;;;;;;;8.75;2.95;;;;;;;18.97;63.15;98896.91;6095123;23;20032;-86
2021/08/08 07:46:24;;;;;;;11.45;3.63;;;;;;;18.95;63.09;98895.41;6069261;23;20033;-87
2021/08/08 07:48:50;;;;;;;11.32;3.13;;;;;;;18.94;63.42;98902.56;6069739;23;20403;-88
2021/08/08 07:51:17;;;;;;;11.80;3.60;;;;;;;18.94;63.15;98909.72;6069801;23;20351;-85
2021/08/08 07:53:44;;;;;;;12.77;3.00;;;;;;;18.92;62.90;98912.59;6094600;23;20033;-85
2021/08/08 07:56:10;;;;;;;10.85;2.92;;;;;;;18.91;63.19;98920.75;6070198;23;20022;-85
2021/08/08 07:58:37;;;;;;;8.63;2.58;;;;;;;18.91;63.38;98928.75;6095266;23;20033;-85
2021/08/08 08:01:04;;;;;;;13.02;3.58;;;;;;;18.90;62.99;98935.88;6095410;23;20328;-84
2021/08/08 08:03:31;;;;;;;13.40;3.70;;;;;;;18.88;63.08;98933.38;6094495;23;20026;-85
2021/08/08 08:05:57;;;;;;;12.70;3.22;;;;;;;18.91;63.66;98934.06;6094421;23;20022;-85
2021/08/08 08:08:25;;;;;;;10.88;3.10;;;;;;;18.90;63.58;98933.22;6094555;23;20057;-88
2021/08/08 08:10:51;;;;;;;9.10;2.65;;;;;;;18.92;63.71;98946.41;6069539;23;20057;-89
2021/08/08 08:13:18;;;;;;;12.80;3.20;;;;;;;18.93;63.36;98940.06;6069491;23;20026;-88
2021/08/08 08:15:45;;;;;;;9.00;3.00;;;;;;;18.94;63.02;98945.25;6069217;23;20030;-87
2021/08/08 08:18:13;;;;;;;9.15;2.75;;;;;;;18.96;63.30;98950.41;6095038;23;20022;-86
2021/08/08 08:20:40;;;;;;;9.85;3.25;;;;;;;19.00;63.28;98951.75;6069744;23;20022;-86
2021/08/08 08:23:07;;;;;;;10.25;2.80;;;;;;;19.02;63.58;98955.94;6093856;23;20025;-86
2021/08/08 08:25:34;;;;;;;12.25;2.80;;;;;;;19.08;63.35;98956.31;6069320;23;20022;-86
2021/08/08 08:28:00;;;;;;;8.68;2.95;;;;;;;19.12;63.46;98953.16;6069961;23;20056;-89
2021/08/08 08:30:27;;;;;;;15.25;3.47;;;;;;;19.18;63.48;98957.00;6070674;23;20046;-84
2021/08/08 08:32:56;;;;;;;6.03;2.67;;;;;;;19.24;63.10;98961.69;6095855;23;20117;-86
2021/08/08 08:35:40;;;;;;;8.32;2.65;;;;;;;19.29;63.03;98963.03;6094552;23;20030;-86
2021/08/08 08:38:06;;;;;;;15.43;3.72;;;;;;;19.32;62.18;98963.53;6094950;23;20464;-87
2021/08/08 08:40:36;;;;;;;12.68;3.35;;;;;;;19.35;62.34;98968.53;6094823;23;20454;-88
2021/08/08 08:43:06;;;;;;;9.48;2.88;;;;;;;19.36;61.80;98961.38;6068996;23;20034;-88
2021/08/08 08:45:36;;;;;;;12.27;2.78;;;;;;;19.40;62.04;98971.53;6094177;23;20030;-87
2021/08/08 08:48:04;;;;;;;8.68;2.80;;;;;;;19.46;62.28;98975.41;6069160;23;20085;-86
2021/08/08 08:50:32;;;;;;;10.52;3.55;;;;;;;19.51;62.14;98972.25;6069397;23;20081;-86
2021/08/08 08:53:00;;;;;;;12.40;2.50;;;;;;;19.56;61.91;98980.59;6069331;23;20026;-88
2021/08/08 08:55:27;;;;;;;8.18;2.78;;;;;;;19.62;62.19;98977.25;6094458;23;20022;-88
2021/08/08 08:57:55;;;;;;;12.75;2.90;;;;;;;19.69;62.04;98985.41;6094841;23;20026;-87
2021/08/08 09:00:23;;;;;;;13.57;3.20;;;;;;;19.73;61.76;98981.41;6094584;23;20027;-89
2021/08/08 09:02:51;;;;;;;12.20;2.97;;;;;;;19.81;61.53;98977.09;6069531;23;20034;-87
2021/08/08 09:05:20;;;;;;;11.00;3.20;;;;;;;19.89;61.51;98979.75;6094016;23;20422;-88
2021/08/08 09:07:46;;;;;;;14.30;3.35;;;;;;;19.99;61.80;98982.28;6069361;23;20390;-87
2021/08/08 09:10:15;;;;;;;11.18;2.95;;;;;;;20.10;61.26;98983.75;6068458;23;20023;-86
2021/08/08 09:12:43;;;;;;;11.10;3.00;;;;;;;20.23;60.96;98985.94;6094777;23;20410;-85
2021/08/08 09:15:11;;;;;;;8.68;2.88;;;;;;;20.36;60.79;98985.38;6095460;23;20026;-86
2021/08/08 09:17:39;;;;;;;8.30;2.63;;;;;;;20.47;60.04;99003.75;6096287;23;20336;-85
2021/08/08 09:20:11;;;;;;;9.80;2.55;;;;;;;20.56;59.04;98989.34;6096233;23;20026;-87
2021/08/08 09:22:39;;;;;;;11.73;2.97;;;;;;;20.66;59.64;98999.88;6096977;23;20027;-88
2021/08/08 09:25:09;;;;;;;7.97;2.60;;;;;;;20.72;58.89;99005.53;6095600;23;20363;-87
2021/08/08 09:27:36;;;;;;;11.35;2.92;;;;;;;;;;6069943;23;20328;-87
2021/08/08 09:30:16;;;;;;;9.23;2.78;;;;;;;20.74;57.55;99011.53;6070341;23;20037;-87
2021/08/08 09:32:43;;;;;;;8.55;2.58;;;;;;;20.75;57.70;99015.88;6096191;23;20022;-88
2021/08/08 09:35:19;;;;;;;7.45;2.60;;;;;;;20.78;58.12;99015.53;6070455;23;20407;-88
2021/08/08 09:38:11;;;;;;;8.13;2.33;;;;;;;20.79;58.08;99014.53;6096565;23;20394;-88
2021/08/08 09:40:42;;;;;;;9.35;2.50;;;;;;;20.90;58.26;99024.88;6082273;23;20038;-88
2021/08/08 09:43:11;;;;;;;9.93;2.70;;;;;;;20.99;57.17;99030.19;6070796;23;20038;-87
2021/08/08 09:45:43;;;;;;;8.32;3.00;;;;;;;21.07;57.92;99032.84;6070952;23;20029;-85
2021/08/08 09:48:12;;;;;;;7.65;2.65;;;;;;;21.13;57.13;99042.84;6096732;23;20022;-88
2021/08/08 09:50:40;;;;;;;9.32;2.28;;;;;;;21.18;56.76;99047.66;6070817;23;20022;-86
2021/08/08 09:53:11;;;;;;;11.30;2.67;;;;;;;21.18;55.67;99051.19;6095913;23;20026;-88
2021/08/08 09:55:40;;;;;;;10.52;2.38;;;;;;;21.17;56.16;99052.22;6069889;23;20030;-88
2021/08/08 09:58:26;;;;;;;10.23;2.65;;;;;;;21.11;55.28;99047.53;6070996;23;20027;-90
2021/08/08 10:01:00;;;;;;;8.07;2.70;;;;;;;21.12;55.57;99043.84;6070811;23;20038;-86
2021/08/08 10:03:27;;;;;;;9.73;2.50;;;;;;;21.16;56.14;99055.06;6070779;23;20266;-88
2021/08/08 10:05:55;;;;;;;7.03;2.38;;;;;;;21.18;55.90;99053.03;6095674;23;20030;-89
2021/08/08 10:08:23;;;;;;;6.95;1.98;;;;;;;21.22;56.13;99055.19;6096013;23;20029;-88
2021/08/08 10:10:53;;;;;;;10.00;2.42;;;;;;;21.28;55.48;99052.81;6096482;23;20042;-89
2021/08/08 10:13:22;;;;;;;5.93;2.25;;;;;;;21.34;55.28;99052.94;6095744;23;20026;-88
2021/08/08 10:15:50;;;;;;;9.40;2.33;;;;;;;21.42;55.76;99049.38;6069913;23;20105;-90
2021/08/08 10:18:21;;;;;;;5.97;2.08;;;;;;;21.48;53.67;99059.41;6095520;23;20054;-89
2021/08/08 10:20:48;;;;;;;6.63;2.03;;;;;;;21.53;55.18;99055.38;6095550;23;20023;-88
2021/08/08 10:23:17;;;;;;;5.32;1.75;;;;;;;21.57;55.23;99051.34;6070721;23;20114;-89
2021/08/08 10:25:48;;;;;;;9.20;2.50;;;;;;;21.63;54.36;99055.97;6070127;23;20026;-89
2021/08/08 10:28:15;;;;;;;7.43;1.92;;;;;;;21.73;54.88;99053.94;6070065;23;20035;-88
2021/08/08 10:30:44;;;;;;;6.65;1.88;;;;;;;21.83;54.56;99055.53;6095597;23;20022;-88
2021/08/08 10:33:11;;;;;;;7.70;2.30;;;;;;;21.90;54.29;99056.47;6095772;23;20058;-88
2021/08/08 10:35:43;;;;;;;9.38;2.22;;;;;;;21.98;53.68;99050.25;6070138;23;20030;-87
2021/08/08 10:38:11;;;;;;;7.00;2.38;;;;;;;22.06;54.19;99050.19;6095396;23;20471;-89
2021/08/08 10:40:39;;;;;;;6.20;2.17;;;;;;;22.17;54.01;99048.91;6069929;23;20029;-88
2021/08/08 10:43:06;;;;;;;6.00;2.03;;;;;;;22.26;53.70;99066.59;6096071;23;20027;-88
2021/08/08 10:45:37;;;;;;;8.63;2.15;;;;;;;22.34;52.93;99054.09;6070011;23;20478;-89
2021/08/08 10:48:09;;;;;;;5.80;1.83;;;;;;;22.41;53.02;99059.56;6069967;23;20026;-88
2021/08/08 10:50:45;;;;;;;8.85;2.17;;;;;;;22.44;51.99;99062.75;6070027;23;20033;-88
2021/08/08 10:53:23;;;;;;;7.85;1.80;;;;;;;22.52;52.37;99054.63;6095798;23;20033;-88
2021/08/08 10:56:02;;;;;;;7.88;1.95;;;;;;;22.61;51.42;99062.63;6070191;23;20327;-88
2021/08/08 10:58:39;;;;;;;5.90;2.03;;;;;;;22.74;51.24;99064.66;6095279;23;20080;-88
2021/08/08 11:01:17;;;;;;;5.78;2.05;;;;;;;22.82;51.58;99064.56;6070305;23;20018;-87
2021/08/08 11:03:59;;;;;;;5.07;1.83;;;;;;;22.89;51.38;99064.66;6069635;23;20061;-89
2021/08/08 11:06:27;;;;;;;13.35;2.40;;;;;;;23.01;52.09;99063.16;6095908;23;20022;-89
2021/08/08 11:08:56;;;;;;;7.65;2.45;;;;;;;23.14;51.37;99075.09;6070003;23;20361;-88
2021/08/08 11:11:27;;;;;;;6.63;2.00;;;;;;;23.22;49.74;99085.75;6095370;23;20022;-88
2021/08/08 11:14:06;;;;;;;6.65;2.00;;;;;;;23.40;51.21;99088.03;6069688;23;20502;-87
2021/08/08 11:16:33;;;;;;;6.47;2.15;;;;;;;23.65;50.98;99079.66;6069917;23;20049;-88
2021/08/08 11:19:00;;;;;;;7.75;1.95;;;;;;;23.88;50.49;99075.94;6070187;23;20022;-89
2021/08/08 11:21:26;;;;;;;6.85;2.10;;;;;;;24.05;49.11;99099.91;6095057;23;20023;-88
2021/08/08 11:23:59;;;;;;;7.07;2.28;;;;;;;24.14;48.34;99082.63;6094657;23;20038;-89
2021/08/08 11:26:26;;;;;;;8.52;1.98;;;;;;;24.20;49.28;99089.09;6070226;23;20477;-88
2021/08/08 11:29:01;;;;;;;9.77;1.95;;;;;;;24.26;49.55;99093.69;6095241;23;20059;-86
2021/08/08 11:31:33;;;;;;;6.63;2.00;;;;;;;24.33;47.99;99091.91;6094987;23;20493;-88
2021/08/08 11:34:03;;;;;;;7.45;2.20;;;;;;;24.38;47.43;99095.88;6069748;23;20068;-88
2021/08/08 11:36:35;;;;;;;6.03;1.80;;;;;;;24.32;46.00;99111.75;6069155;23;20034;-87